sensor_id;sensor_type;location;lat;lon;timestamp;temperature;humidity
18502;DHT22;68437;52.236;5.710;2023-04-25T00:02:10;5.80;99.90
18502;DHT22;68437;52.236;5.710;2023-04-25T00:04:37;5.80;99.90
18502;DHT22;68437;52.236;5.710;2023-04-25T00:07:06;5.80;99.90
18502;DHT22;68437;52.236;5.710;2023-04-25T00:09:32;5.80;99.90
18502;DHT22;68437;52.236;5.710;2023-04-25T00:12:01;5.80;99.90
18502;DHT22;68437;52.236;5.710;2023-04-25T00:14:28;5.70;99.90
18502;DHT22;68437;52.236;5.710;2023-04-25T00:16:54;5.70;99.90
18502;DHT22;68437;52.236;5.710;2023-04-25T00:19:21;5.60;99.90
18502;DHT22;68437;52.236;5.710;2023-04-25T00:21:48;5.60;99.90
18502;DHT22;68437;52.236;5.710;2023-04-25T00:24:15;5.40;99.90
18502;DHT22;68437;52.236;5.710;2023-04-25T00:26:42;5.50;99.90
18502;DHT22;68437;52.236;5.710;2023-04-25T00:29:10;5.50;99.90
18502;DHT22;68437;52.236;5.710;2023-04-25T00:31:39;5.40;99.90
18502;DHT22;68437;52.236;5.710;2023-04-25T00:34:06;5.40;99.90
18502;DHT22;68437;52.236;5.710;2023-04-25T00:36:33;5.30;99.90
18502;DHT22;68437;52.236;5.710;2023-04-25T00:39:00;5.30;99.90
18502;DHT22;68437;52.236;5.710;2023-04-25T00:41:28;5.20;99.90
18502;DHT22;68437;52.236;5.710;2023-04-25T00:43:56;5.20;99.90
18502;DHT22;68437;52.236;5.710;2023-04-25T00:46:24;5.20;99.90
18502;DHT22;68437;52.236;5.710;2023-04-25T00:48:53;5.20;99.90
18502;DHT22;68437;52.236;5.710;2023-04-25T00:51:20;5.10;99.90
18502;DHT22;68437;52.236;5.710;2023-04-25T00:53:49;5.10;99.90
18502;DHT22;68437;52.236;5.710;2023-04-25T00:56:16;5.10;99.90
18502;DHT22;68437;52.236;5.710;2023-04-25T00:58:43;5.00;99.90
18502;DHT22;68437;52.236;5.710;2023-04-25T01:01:11;5.00;99.90
18502;DHT22;68437;52.236;5.710;2023-04-25T01:03:40;5.00;99.90
18502;DHT22;68437;52.236;5.710;2023-04-25T01:06:08;5.00;99.90
18502;DHT22;68437;52.236;5.710;2023-04-25T01:08:38;4.90;99.90
18502;DHT22;68437;52.236;5.710;2023-04-25T01:11:05;4.90;99.90
18502;DHT22;68437;52.236;5.710;2023-04-25T01:13:33;4.80;99.90
18502;DHT22;68437;52.236;5.710;2023-04-25T01:16:00;4.80;99.90
18502;DHT22;68437;52.236;5.710;2023-04-25T01:18:27;4.80;99.90
18502;DHT22;68437;52.236;5.710;2023-04-25T01:20:55;4.80;99.90
18502;DHT22;68437;52.236;5.710;2023-04-25T01:23:24;4.70;99.90
18502;DHT22;68437;52.236;5.710;2023-04-25T01:25:51;4.70;99.90
18502;DHT22;68437;52.236;5.710;2023-04-25T01:28:19;4.70;99.90
18502;DHT22;68437;52.236;5.710;2023-04-25T01:30:47;4.60;99.90
18502;DHT22;68437;52.236;5.710;2023-04-25T01:33:15;4.60;99.90
18502;DHT22;68437;52.236;5.710;2023-04-25T01:35:42;4.60;99.90
18502;DHT22;68437;52.236;5.710;2023-04-25T01:38:13;4.60;99.90
18502;DHT22;68437;52.236;5.710;2023-04-25T01:40:41;4.60;99.90
18502;DHT22;68437;52.236;5.710;2023-04-25T01:43:08;4.60;99.90
18502;DHT22;68437;52.236;5.710;2023-04-25T01:45:36;4.50;99.90
18502;DHT22;68437;52.236;5.710;2023-04-25T01:48:07;4.50;99.90
18502;DHT22;68437;52.236;5.710;2023-04-25T01:50:34;4.50;99.90
18502;DHT22;68437;52.236;5.710;2023-04-25T01:53:01;4.50;99.90
18502;DHT22;68437;52.236;5.710;2023-04-25T01:55:28;4.40;99.90
18502;DHT22;68437;52.236;5.710;2023-04-25T01:57:56;4.40;99.90
18502;DHT22;68437;52.236;5.710;2023-04-25T02:00:24;4.40;99.90
18502;DHT22;68437;52.236;5.710;2023-04-25T02:02:50;4.30;99.90
18502;DHT22;68437;52.236;5.710;2023-04-25T02:05:19;4.30;99.90
18502;DHT22;68437;52.236;5.710;2023-04-25T02:07:47;4.30;99.90
18502;DHT22;68437;52.236;5.710;2023-04-25T02:10:14;4.20;99.90
18502;DHT22;68437;52.236;5.710;2023-04-25T02:12:41;4.10;99.90
18502;DHT22;68437;52.236;5.710;2023-04-25T02:15:09;4.30;99.90
18502;DHT22;68437;52.236;5.710;2023-04-25T02:17:37;4.10;99.90
18502;DHT22;68437;52.236;5.710;2023-04-25T02:20:05;4.20;99.90
18502;DHT22;68437;52.236;5.710;2023-04-25T02:22:32;4.10;99.90
18502;DHT22;68437;52.236;5.710;2023-04-25T02:25:01;4.10;99.90
18502;DHT22;68437;52.236;5.710;2023-04-25T02:27:28;4.10;99.90
18502;DHT22;68437;52.236;5.710;2023-04-25T02:29:54;4.00;99.90
18502;DHT22;68437;52.236;5.710;2023-04-25T02:32:22;3.90;99.90
18502;DHT22;68437;52.236;5.710;2023-04-25T02:34:49;3.90;99.90
18502;DHT22;68437;52.236;5.710;2023-04-25T02:37:16;3.80;99.90
18502;DHT22;68437;52.236;5.710;2023-04-25T02:39:43;3.70;99.90
18502;DHT22;68437;52.236;5.710;2023-04-25T02:42:10;3.70;99.90
18502;DHT22;68437;52.236;5.710;2023-04-25T02:44:36;3.70;99.90
18502;DHT22;68437;52.236;5.710;2023-04-25T02:47:03;3.60;99.90
18502;DHT22;68437;52.236;5.710;2023-04-25T02:49:31;3.60;99.90
18502;DHT22;68437;52.236;5.710;2023-04-25T02:51:58;3.50;99.90
18502;DHT22;68437;52.236;5.710;2023-04-25T02:54:25;3.50;99.90
18502;DHT22;68437;52.236;5.710;2023-04-25T02:56:52;3.50;99.90
18502;DHT22;68437;52.236;5.710;2023-04-25T02:59:19;3.50;99.90
18502;DHT22;68437;52.236;5.710;2023-04-25T03:01:45;3.50;99.90
18502;DHT22;68437;52.236;5.710;2023-04-25T03:04:12;3.50;99.90
18502;DHT22;68437;52.236;5.710;2023-04-25T03:06:45;3.50;99.90
18502;DHT22;68437;52.236;5.710;2023-04-25T03:09:11;3.50;99.90
18502;DHT22;68437;52.236;5.710;2023-04-25T03:11:40;3.50;99.90
18502;DHT22;68437;52.236;5.710;2023-04-25T03:14:07;3.50;99.90
18502;DHT22;68437;52.236;5.710;2023-04-25T03:16:34;3.40;99.90
18502;DHT22;68437;52.236;5.710;2023-04-25T03:19:01;3.40;99.90
18502;DHT22;68437;52.236;5.710;2023-04-25T03:21:30;3.40;99.90
18502;DHT22;68437;52.236;5.710;2023-04-25T03:24:01;3.40;99.90
18502;DHT22;68437;52.236;5.710;2023-04-25T03:26:28;3.40;99.90
18502;DHT22;68437;52.236;5.710;2023-04-25T03:28:55;3.30;99.90
18502;DHT22;68437;52.236;5.710;2023-04-25T03:31:22;3.20;99.90
18502;DHT22;68437;52.236;5.710;2023-04-25T03:33:50;3.20;99.90
18502;DHT22;68437;52.236;5.710;2023-04-25T03:36:16;3.20;99.90
18502;DHT22;68437;52.236;5.710;2023-04-25T03:38:43;3.20;99.90
18502;DHT22;68437;52.236;5.710;2023-04-25T03:41:11;3.20;99.90
18502;DHT22;68437;52.236;5.710;2023-04-25T03:43:38;3.20;99.90
18502;DHT22;68437;52.236;5.710;2023-04-25T03:46:10;3.20;99.90
18502;DHT22;68437;52.236;5.710;2023-04-25T03:48:37;3.10;99.90
18502;DHT22;68437;52.236;5.710;2023-04-25T03:51:04;3.10;99.90
18502;DHT22;68437;52.236;5.710;2023-04-25T03:53:31;3.10;99.90
18502;DHT22;68437;52.236;5.710;2023-04-25T03:55:58;3.20;99.90
18502;DHT22;68437;52.236;5.710;2023-04-25T03:58:26;3.20;99.90
18502;DHT22;68437;52.236;5.710;2023-04-25T04:00:58;3.30;99.90
18502;DHT22;68437;52.236;5.710;2023-04-25T04:03:25;3.30;99.90
18502;DHT22;68437;52.236;5.710;2023-04-25T04:05:51;3.30;99.90
18502;DHT22;68437;52.236;5.710;2023-04-25T04:08:18;3.40;99.90
18502;DHT22;68437;52.236;5.710;2023-04-25T04:10:45;3.40;99.90
18502;DHT22;68437;52.236;5.710;2023-04-25T04:13:12;3.50;99.90
18502;DHT22;68437;52.236;5.710;2023-04-25T04:15:40;3.60;99.90
18502;DHT22;68437;52.236;5.710;2023-04-25T04:18:07;3.60;99.90
18502;DHT22;68437;52.236;5.710;2023-04-25T04:20:33;3.60;99.90
18502;DHT22;68437;52.236;5.710;2023-04-25T04:23:03;3.60;99.90
18502;DHT22;68437;52.236;5.710;2023-04-25T04:25:30;3.60;99.90
18502;DHT22;68437;52.236;5.710;2023-04-25T04:27:57;3.70;99.90
18502;DHT22;68437;52.236;5.710;2023-04-25T04:30:24;3.70;99.90
18502;DHT22;68437;52.236;5.710;2023-04-25T04:32:56;3.80;99.90
18502;DHT22;68437;52.236;5.710;2023-04-25T04:35:23;3.80;99.90
18502;DHT22;68437;52.236;5.710;2023-04-25T04:37:50;3.80;99.90
18502;DHT22;68437;52.236;5.710;2023-04-25T04:40:18;3.90;99.90
18502;DHT22;68437;52.236;5.710;2023-04-25T04:42:46;3.90;99.90
18502;DHT22;68437;52.236;5.710;2023-04-25T04:45:15;3.90;99.90
18502;DHT22;68437;52.236;5.710;2023-04-25T04:47:42;3.90;99.90
18502;DHT22;68437;52.236;5.710;2023-04-25T04:50:10;3.90;99.90
18502;DHT22;68437;52.236;5.710;2023-04-25T04:52:38;4.00;99.90
18502;DHT22;68437;52.236;5.710;2023-04-25T04:55:06;4.00;99.90
18502;DHT22;68437;52.236;5.710;2023-04-25T04:57:37;4.00;99.90
18502;DHT22;68437;52.236;5.710;2023-04-25T05:00:06;4.00;99.90
18502;DHT22;68437;52.236;5.710;2023-04-25T05:02:36;4.00;99.90
18502;DHT22;68437;52.236;5.710;2023-04-25T05:05:04;4.00;99.90
18502;DHT22;68437;52.236;5.710;2023-04-25T05:07:32;4.00;99.90
18502;DHT22;68437;52.236;5.710;2023-04-25T05:09:59;4.10;99.90
18502;DHT22;68437;52.236;5.710;2023-04-25T05:12:26;4.20;99.90
18502;DHT22;68437;52.236;5.710;2023-04-25T05:14:53;4.30;99.90
18502;DHT22;68437;52.236;5.710;2023-04-25T05:17:20;4.30;99.90
18502;DHT22;68437;52.236;5.710;2023-04-25T05:19:46;4.40;99.90
18502;DHT22;68437;52.236;5.710;2023-04-25T05:22:13;4.50;99.90
18502;DHT22;68437;52.236;5.710;2023-04-25T05:24:41;4.60;99.90
18502;DHT22;68437;52.236;5.710;2023-04-25T05:27:08;4.60;99.90
18502;DHT22;68437;52.236;5.710;2023-04-25T05:29:35;4.60;99.90
18502;DHT22;68437;52.236;5.710;2023-04-25T05:32:02;4.70;99.90
18502;DHT22;68437;52.236;5.710;2023-04-25T05:34:29;4.70;99.90
18502;DHT22;68437;52.236;5.710;2023-04-25T05:36:56;4.80;99.90
18502;DHT22;68437;52.236;5.710;2023-04-25T05:39:22;4.80;99.90
18502;DHT22;68437;52.236;5.710;2023-04-25T05:41:51;4.90;99.90
18502;DHT22;68437;52.236;5.710;2023-04-25T05:44:18;4.90;99.90
18502;DHT22;68437;52.236;5.710;2023-04-25T05:46:45;5.00;99.90
18502;DHT22;68437;52.236;5.710;2023-04-25T05:49:13;5.00;99.90
18502;DHT22;68437;52.236;5.710;2023-04-25T05:51:39;5.10;99.90
18502;DHT22;68437;52.236;5.710;2023-04-25T05:54:06;5.10;99.90
18502;DHT22;68437;52.236;5.710;2023-04-25T05:56:33;5.30;99.90
18502;DHT22;68437;52.236;5.710;2023-04-25T05:59:01;5.40;99.90
18502;DHT22;68437;52.236;5.710;2023-04-25T06:01:29;5.40;99.90
18502;DHT22;68437;52.236;5.710;2023-04-25T06:03:55;5.50;99.90
18502;DHT22;68437;52.236;5.710;2023-04-25T06:06:22;5.50;99.90
18502;DHT22;68437;52.236;5.710;2023-04-25T06:08:49;5.70;99.90
18502;DHT22;68437;52.236;5.710;2023-04-25T06:11:19;5.80;99.90
18502;DHT22;68437;52.236;5.710;2023-04-25T06:13:45;5.80;99.90
18502;DHT22;68437;52.236;5.710;2023-04-25T06:16:14;5.90;99.90
18502;DHT22;68437;52.236;5.710;2023-04-25T06:18:40;5.90;99.90
18502;DHT22;68437;52.236;5.710;2023-04-25T06:21:07;5.90;99.90
18502;DHT22;68437;52.236;5.710;2023-04-25T06:23:34;5.90;99.90
18502;DHT22;68437;52.236;5.710;2023-04-25T06:26:01;5.90;99.90
18502;DHT22;68437;52.236;5.710;2023-04-25T06:28:28;5.80;99.90
18502;DHT22;68437;52.236;5.710;2023-04-25T06:30:54;5.80;99.90
18502;DHT22;68437;52.236;5.710;2023-04-25T06:33:23;6.00;99.90
18502;DHT22;68437;52.236;5.710;2023-04-25T06:35:50;6.10;99.90
18502;DHT22;68437;52.236;5.710;2023-04-25T06:38:17;6.30;99.90
18502;DHT22;68437;52.236;5.710;2023-04-25T06:40:43;6.50;99.90
18502;DHT22;68437;52.236;5.710;2023-04-25T06:43:10;6.60;99.90
18502;DHT22;68437;52.236;5.710;2023-04-25T06:45:37;6.70;99.90
18502;DHT22;68437;52.236;5.710;2023-04-25T06:48:04;6.80;99.90
18502;DHT22;68437;52.236;5.710;2023-04-25T06:50:33;7.00;99.90
18502;DHT22;68437;52.236;5.710;2023-04-25T06:53:00;6.90;99.90
18502;DHT22;68437;52.236;5.710;2023-04-25T06:55:27;6.90;99.90
18502;DHT22;68437;52.236;5.710;2023-04-25T06:57:54;6.80;99.90
18502;DHT22;68437;52.236;5.710;2023-04-25T07:00:21;6.90;99.90
18502;DHT22;68437;52.236;5.710;2023-04-25T07:02:48;6.90;99.90
18502;DHT22;68437;52.236;5.710;2023-04-25T07:05:15;7.00;99.90
18502;DHT22;68437;52.236;5.710;2023-04-25T07:07:43;7.10;99.90
18502;DHT22;68437;52.236;5.710;2023-04-25T07:10:10;7.20;99.90
18502;DHT22;68437;52.236;5.710;2023-04-25T07:12:37;7.20;99.90
18502;DHT22;68437;52.236;5.710;2023-04-25T07:15:04;7.20;99.90
18502;DHT22;68437;52.236;5.710;2023-04-25T07:17:33;7.10;99.90
18502;DHT22;68437;52.236;5.710;2023-04-25T07:20:00;7.10;99.90
18502;DHT22;68437;52.236;5.710;2023-04-25T07:22:27;7.20;99.90
18502;DHT22;68437;52.236;5.710;2023-04-25T07:24:55;7.30;99.90
18502;DHT22;68437;52.236;5.710;2023-04-25T07:27:22;7.40;99.90
18502;DHT22;68437;52.236;5.710;2023-04-25T07:29:49;7.40;99.90
18502;DHT22;68437;52.236;5.710;2023-04-25T07:32:15;7.40;99.90
18502;DHT22;68437;52.236;5.710;2023-04-25T07:34:42;7.30;99.90
18502;DHT22;68437;52.236;5.710;2023-04-25T07:37:12;7.40;99.90
18502;DHT22;68437;52.236;5.710;2023-04-25T07:39:40;7.50;99.90
18502;DHT22;68437;52.236;5.710;2023-04-25T07:42:08;7.40;99.90
18502;DHT22;68437;52.236;5.710;2023-04-25T07:44:35;7.50;99.90
18502;DHT22;68437;52.236;5.710;2023-04-25T07:47:04;7.80;99.90
18502;DHT22;68437;52.236;5.710;2023-04-25T07:49:32;8.10;99.90
18502;DHT22;68437;52.236;5.710;2023-04-25T07:51:59;8.10;99.90
18502;DHT22;68437;52.236;5.710;2023-04-25T07:54:26;8.20;99.90
18502;DHT22;68437;52.236;5.710;2023-04-25T07:56:52;8.10;99.90
18502;DHT22;68437;52.236;5.710;2023-04-25T07:59:22;8.00;99.90
18502;DHT22;68437;52.236;5.710;2023-04-25T08:01:52;7.80;99.90
18502;DHT22;68437;52.236;5.710;2023-04-25T08:04:18;7.80;99.90
18502;DHT22;68437;52.236;5.710;2023-04-25T08:06:48;7.70;99.90
18502;DHT22;68437;52.236;5.710;2023-04-25T08:09:16;7.80;99.90
18502;DHT22;68437;52.236;5.710;2023-04-25T08:11:43;7.80;99.90
18502;DHT22;68437;52.236;5.710;2023-04-25T08:14:10;7.80;99.90
18502;DHT22;68437;52.236;5.710;2023-04-25T08:16:38;7.90;99.90
18502;DHT22;68437;52.236;5.710;2023-04-25T08:19:05;7.70;99.90
18502;DHT22;68437;52.236;5.710;2023-04-25T08:21:32;7.80;99.90
18502;DHT22;68437;52.236;5.710;2023-04-25T08:23:59;7.90;99.90
18502;DHT22;68437;52.236;5.710;2023-04-25T08:26:26;8.00;99.90
18502;DHT22;68437;52.236;5.710;2023-04-25T08:28:53;8.10;99.90
18502;DHT22;68437;52.236;5.710;2023-04-25T08:31:19;8.10;99.90
18502;DHT22;68437;52.236;5.710;2023-04-25T08:33:48;8.20;99.90
18502;DHT22;68437;52.236;5.710;2023-04-25T08:36:17;8.30;99.90
18502;DHT22;68437;52.236;5.710;2023-04-25T08:38:44;8.40;99.90
18502;DHT22;68437;52.236;5.710;2023-04-25T08:41:11;8.40;99.90
18502;DHT22;68437;52.236;5.710;2023-04-25T08:43:42;8.40;99.90
18502;DHT22;68437;52.236;5.710;2023-04-25T08:46:17;8.30;99.90
18502;DHT22;68437;52.236;5.710;2023-04-25T08:48:53;8.20;99.90
18502;DHT22;68437;52.236;5.710;2023-04-25T08:51:25;8.20;99.90
18502;DHT22;68437;52.236;5.710;2023-04-25T08:53:53;8.30;99.90
18502;DHT22;68437;52.236;5.710;2023-04-25T08:56:26;8.40;99.90
18502;DHT22;68437;52.236;5.710;2023-04-25T08:58:54;8.50;99.90
18502;DHT22;68437;52.236;5.710;2023-04-25T09:01:22;8.60;99.90
18502;DHT22;68437;52.236;5.710;2023-04-25T09:03:49;8.50;99.90
18502;DHT22;68437;52.236;5.710;2023-04-25T09:06:21;8.50;99.90
18502;DHT22;68437;52.236;5.710;2023-04-25T09:09:00;8.70;99.90
18502;DHT22;68437;52.236;5.710;2023-04-25T09:11:27;9.10;99.90
18502;DHT22;68437;52.236;5.710;2023-04-25T09:14:12;8.90;99.90
18502;DHT22;68437;52.236;5.710;2023-04-25T09:16:59;8.80;99.90
18502;DHT22;68437;52.236;5.710;2023-04-25T09:19:28;9.10;99.90
18502;DHT22;68437;52.236;5.710;2023-04-25T09:21:58;9.30;99.90
18502;DHT22;68437;52.236;5.710;2023-04-25T09:24:36;9.30;99.90
18502;DHT22;68437;52.236;5.710;2023-04-25T09:27:04;9.10;99.90
18502;DHT22;68437;52.236;5.710;2023-04-25T09:29:31;9.00;99.90
18502;DHT22;68437;52.236;5.710;2023-04-25T09:32:16;9.20;99.90
18502;DHT22;68437;52.236;5.710;2023-04-25T09:34:49;9.60;99.90
18502;DHT22;68437;52.236;5.710;2023-04-25T09:37:22;9.80;99.90
18502;DHT22;68437;52.236;5.710;2023-04-25T09:39:50;10.00;99.90
18502;DHT22;68437;52.236;5.710;2023-04-25T09:42:17;9.60;99.90
18502;DHT22;68437;52.236;5.710;2023-04-25T09:44:45;9.10;99.90
18502;DHT22;68437;52.236;5.710;2023-04-25T09:47:13;8.80;99.90
18502;DHT22;68437;52.236;5.710;2023-04-25T09:49:41;8.50;99.90
18502;DHT22;68437;52.236;5.710;2023-04-25T09:52:09;8.10;99.90
18502;DHT22;68437;52.236;5.710;2023-04-25T09:54:40;7.40;99.90
18502;DHT22;68437;52.236;5.710;2023-04-25T09:57:11;6.80;99.90
18502;DHT22;68437;52.236;5.710;2023-04-25T09:59:43;6.30;99.90
18502;DHT22;68437;52.236;5.710;2023-04-25T10:02:12;6.10;99.90
18502;DHT22;68437;52.236;5.710;2023-04-25T10:04:39;6.00;99.90
18502;DHT22;68437;52.236;5.710;2023-04-25T10:07:08;6.10;99.90
18502;DHT22;68437;52.236;5.710;2023-04-25T10:09:40;6.30;99.90
18502;DHT22;68437;52.236;5.710;2023-04-25T10:12:08;6.50;99.90
18502;DHT22;68437;52.236;5.710;2023-04-25T10:14:36;6.60;99.90
18502;DHT22;68437;52.236;5.710;2023-04-25T10:17:03;6.80;99.90
18502;DHT22;68437;52.236;5.710;2023-04-25T10:19:30;7.30;99.90
18502;DHT22;68437;52.236;5.710;2023-04-25T10:22:06;7.70;99.90
18502;DHT22;68437;52.236;5.710;2023-04-25T10:24:34;8.10;99.90
18502;DHT22;68437;52.236;5.710;2023-04-25T10:27:03;8.40;99.90
18502;DHT22;68437;52.236;5.710;2023-04-25T10:29:30;8.80;99.90
18502;DHT22;68437;52.236;5.710;2023-04-25T10:31:57;9.20;99.90
18502;DHT22;68437;52.236;5.710;2023-04-25T10:34:37;9.30;99.90
18502;DHT22;68437;52.236;5.710;2023-04-25T10:37:05;9.30;99.90
18502;DHT22;68437;52.236;5.710;2023-04-25T10:39:32;9.50;99.90
18502;DHT22;68437;52.236;5.710;2023-04-25T10:42:03;9.60;99.90
18502;DHT22;68437;52.236;5.710;2023-04-25T10:44:30;9.70;99.90
18502;DHT22;68437;52.236;5.710;2023-04-25T10:46:58;9.90;99.90
18502;DHT22;68437;52.236;5.710;2023-04-25T10:49:30;9.80;99.90
18502;DHT22;68437;52.236;5.710;2023-04-25T10:52:27;9.90;99.90
18502;DHT22;68437;52.236;5.710;2023-04-25T10:54:56;9.70;99.90
18502;DHT22;68437;52.236;5.710;2023-04-25T10:57:36;9.80;99.90
18502;DHT22;68437;52.236;5.710;2023-04-25T11:00:13;9.90;99.90
18502;DHT22;68437;52.236;5.710;2023-04-25T11:02:44;10.00;99.90
18502;DHT22;68437;52.236;5.710;2023-04-25T11:05:20;9.90;99.90
18502;DHT22;68437;52.236;5.710;2023-04-25T11:07:50;9.80;99.90
18502;DHT22;68437;52.236;5.710;2023-04-25T11:10:18;10.10;99.90
18502;DHT22;68437;52.236;5.710;2023-04-25T11:12:47;10.50;99.90
18502;DHT22;68437;52.236;5.710;2023-04-25T11:15:14;10.90;99.90
18502;DHT22;68437;52.236;5.710;2023-04-25T11:17:41;11.10;99.90
18502;DHT22;68437;52.236;5.710;2023-04-25T11:20:09;10.40;99.90
18502;DHT22;68437;52.236;5.710;2023-04-25T11:22:37;10.10;99.90
18502;DHT22;68437;52.236;5.710;2023-04-25T11:25:06;10.30;99.90
18502;DHT22;68437;52.236;5.710;2023-04-25T11:27:33;10.10;99.90
18502;DHT22;68437;52.236;5.710;2023-04-25T11:30:12;9.80;99.90
18502;DHT22;68437;52.236;5.710;2023-04-25T11:32:40;9.60;99.90
18502;DHT22;68437;52.236;5.710;2023-04-25T11:35:08;9.30;99.90
18502;DHT22;68437;52.236;5.710;2023-04-25T11:37:35;9.10;99.90
18502;DHT22;68437;52.236;5.710;2023-04-25T11:40:03;9.10;99.90
18502;DHT22;68437;52.236;5.710;2023-04-25T11:42:32;9.50;99.90
18502;DHT22;68437;52.236;5.710;2023-04-25T11:44:58;10.10;99.90
18502;DHT22;68437;52.236;5.710;2023-04-25T11:47:33;9.90;99.90
18502;DHT22;68437;52.236;5.710;2023-04-25T11:50:01;9.60;99.90
18502;DHT22;68437;52.236;5.710;2023-04-25T11:52:38;9.30;99.90
18502;DHT22;68437;52.236;5.710;2023-04-25T11:55:09;9.20;99.90
18502;DHT22;68437;52.236;5.710;2023-04-25T11:57:38;9.20;99.90
18502;DHT22;68437;52.236;5.710;2023-04-25T12:00:12;9.30;99.90
18502;DHT22;68437;52.236;5.710;2023-04-25T12:02:45;9.40;99.90
18502;DHT22;68437;52.236;5.710;2023-04-25T12:05:14;9.40;99.90
18502;DHT22;68437;52.236;5.710;2023-04-25T12:07:41;9.30;99.90
18502;DHT22;68437;52.236;5.710;2023-04-25T12:10:10;9.20;99.90
18502;DHT22;68437;52.236;5.710;2023-04-25T12:12:38;9.30;99.90
18502;DHT22;68437;52.236;5.710;2023-04-25T12:15:12;9.80;99.90
18502;DHT22;68437;52.236;5.710;2023-04-25T12:17:44;10.30;99.90
18502;DHT22;68437;52.236;5.710;2023-04-25T12:20:16;10.30;99.90
18502;DHT22;68437;52.236;5.710;2023-04-25T12:22:44;10.20;99.90
18502;DHT22;68437;52.236;5.710;2023-04-25T12:25:12;9.90;99.90
18502;DHT22;68437;52.236;5.710;2023-04-25T12:27:39;10.10;99.90
18502;DHT22;68437;52.236;5.710;2023-04-25T12:30:08;10.60;99.90
18502;DHT22;68437;52.236;5.710;2023-04-25T12:32:36;10.90;99.90
18502;DHT22;68437;52.236;5.710;2023-04-25T12:35:05;11.20;99.90
18502;DHT22;68437;52.236;5.710;2023-04-25T12:37:32;11.40;99.90
18502;DHT22;68437;52.236;5.710;2023-04-25T12:39:59;11.60;99.90
18502;DHT22;68437;52.236;5.710;2023-04-25T12:42:30;11.90;99.90
18502;DHT22;68437;52.236;5.710;2023-04-25T12:44:56;11.60;99.90
18502;DHT22;68437;52.236;5.710;2023-04-25T12:47:23;11.10;99.90
18502;DHT22;68437;52.236;5.710;2023-04-25T12:49:50;10.50;99.90
18502;DHT22;68437;52.236;5.710;2023-04-25T12:52:18;10.00;99.90
18502;DHT22;68437;52.236;5.710;2023-04-25T12:54:45;9.70;99.90
18502;DHT22;68437;52.236;5.710;2023-04-25T12:57:12;9.80;99.90
18502;DHT22;68437;52.236;5.710;2023-04-25T12:59:39;10.10;99.90
18502;DHT22;68437;52.236;5.710;2023-04-25T13:02:05;10.30;99.90
18502;DHT22;68437;52.236;5.710;2023-04-25T13:04:32;10.80;99.90
18502;DHT22;68437;52.236;5.710;2023-04-25T13:06:59;11.20;99.90
18502;DHT22;68437;52.236;5.710;2023-04-25T13:09:27;11.70;99.90
18502;DHT22;68437;52.236;5.710;2023-04-25T13:11:54;11.50;99.90
18502;DHT22;68437;52.236;5.710;2023-04-25T13:14:21;11.60;99.90
18502;DHT22;68437;52.236;5.710;2023-04-25T13:16:50;11.60;99.90
18502;DHT22;68437;52.236;5.710;2023-04-25T13:19:17;11.70;99.90
18502;DHT22;68437;52.236;5.710;2023-04-25T13:21:43;11.50;99.90
18502;DHT22;68437;52.236;5.710;2023-04-25T13:24:10;10.90;99.90
18502;DHT22;68437;52.236;5.710;2023-04-25T13:26:38;10.40;99.90
18502;DHT22;68437;52.236;5.710;2023-04-25T13:29:05;9.80;99.90
18502;DHT22;68437;52.236;5.710;2023-04-25T13:31:32;9.70;99.90
18502;DHT22;68437;52.236;5.710;2023-04-25T13:34:00;9.90;99.90
18502;DHT22;68437;52.236;5.710;2023-04-25T13:36:26;10.40;99.90
18502;DHT22;68437;52.236;5.710;2023-04-25T13:38:54;10.70;99.90
18502;DHT22;68437;52.236;5.710;2023-04-25T13:41:21;10.60;99.90
18502;DHT22;68437;52.236;5.710;2023-04-25T13:43:49;10.50;99.90
18502;DHT22;68437;52.236;5.710;2023-04-25T13:46:16;10.60;99.90
18502;DHT22;68437;52.236;5.710;2023-04-25T13:48:43;10.80;99.90
18502;DHT22;68437;52.236;5.710;2023-04-25T13:51:13;10.90;99.90
18502;DHT22;68437;52.236;5.710;2023-04-25T13:53:40;11.00;99.90
18502;DHT22;68437;52.236;5.710;2023-04-25T13:56:07;10.80;99.90
18502;DHT22;68437;52.236;5.710;2023-04-25T13:58:34;10.70;99.90
18502;DHT22;68437;52.236;5.710;2023-04-25T14:01:02;11.00;99.90
18502;DHT22;68437;52.236;5.710;2023-04-25T14:03:31;11.60;99.90
18502;DHT22;68437;52.236;5.710;2023-04-25T14:05:58;11.30;99.90
18502;DHT22;68437;52.236;5.710;2023-04-25T14:08:24;11.00;99.90
18502;DHT22;68437;52.236;5.710;2023-04-25T14:10:51;10.70;99.90
18502;DHT22;68437;52.236;5.710;2023-04-25T14:13:18;10.60;99.90
18502;DHT22;68437;52.236;5.710;2023-04-25T14:15:45;10.90;99.90
18502;DHT22;68437;52.236;5.710;2023-04-25T14:18:13;11.20;99.90
18502;DHT22;68437;52.236;5.710;2023-04-25T14:20:40;11.30;99.90
18502;DHT22;68437;52.236;5.710;2023-04-25T14:23:06;11.20;99.90
18502;DHT22;68437;52.236;5.710;2023-04-25T14:25:34;10.90;99.90
18502;DHT22;68437;52.236;5.710;2023-04-25T14:28:01;10.60;99.90
18502;DHT22;68437;52.236;5.710;2023-04-25T14:30:28;10.60;99.90
18502;DHT22;68437;52.236;5.710;2023-04-25T14:32:55;10.60;99.90
18502;DHT22;68437;52.236;5.710;2023-04-25T14:35:23;10.50;99.90
18502;DHT22;68437;52.236;5.710;2023-04-25T14:37:50;10.40;99.90
18502;DHT22;68437;52.236;5.710;2023-04-25T14:40:17;10.30;99.90
18502;DHT22;68437;52.236;5.710;2023-04-25T14:42:47;10.50;99.90
18502;DHT22;68437;52.236;5.710;2023-04-25T14:45:14;10.70;99.90
18502;DHT22;68437;52.236;5.710;2023-04-25T14:47:41;10.70;99.90
18502;DHT22;68437;52.236;5.710;2023-04-25T14:50:08;10.60;99.90
18502;DHT22;68437;52.236;5.710;2023-04-25T14:52:37;10.30;99.90
18502;DHT22;68437;52.236;5.710;2023-04-25T14:55:04;10.50;99.90
18502;DHT22;68437;52.236;5.710;2023-04-25T14:57:31;10.70;99.90
18502;DHT22;68437;52.236;5.710;2023-04-25T14:59:58;10.70;99.90
18502;DHT22;68437;52.236;5.710;2023-04-25T15:02:25;10.70;99.90
18502;DHT22;68437;52.236;5.710;2023-04-25T15:04:52;10.80;99.90
18502;DHT22;68437;52.236;5.710;2023-04-25T15:07:19;10.50;99.90
18502;DHT22;68437;52.236;5.710;2023-04-25T15:09:48;10.50;99.90
18502;DHT22;68437;52.236;5.710;2023-04-25T15:12:15;10.60;99.90
18502;DHT22;68437;52.236;5.710;2023-04-25T15:14:42;10.40;99.90
18502;DHT22;68437;52.236;5.710;2023-04-25T15:17:09;10.20;99.90
18502;DHT22;68437;52.236;5.710;2023-04-25T15:19:38;10.10;99.90
18502;DHT22;68437;52.236;5.710;2023-04-25T15:22:05;10.30;99.90
18502;DHT22;68437;52.236;5.710;2023-04-25T15:24:32;10.60;99.90
18502;DHT22;68437;52.236;5.710;2023-04-25T15:27:00;10.80;99.90
18502;DHT22;68437;52.236;5.710;2023-04-25T15:29:28;10.80;99.90
18502;DHT22;68437;52.236;5.710;2023-04-25T15:31:55;11.20;99.90
18502;DHT22;68437;52.236;5.710;2023-04-25T15:34:22;11.00;99.90
18502;DHT22;68437;52.236;5.710;2023-04-25T15:36:48;11.20;99.90
18502;DHT22;68437;52.236;5.710;2023-04-25T15:39:15;10.50;99.90
18502;DHT22;68437;52.236;5.710;2023-04-25T15:41:42;10.10;99.90
18502;DHT22;68437;52.236;5.710;2023-04-25T15:44:10;9.90;99.90
18502;DHT22;68437;52.236;5.710;2023-04-25T15:46:37;9.60;99.90
18502;DHT22;68437;52.236;5.710;2023-04-25T15:49:04;9.40;99.90